Cataratas Del Iguazu International Airport
SARI : now visible

Airfield :











YOU CAN JOIN US ON...

 
LOGIN :

Register | Disclaimer

   EN    FR    IT 

 









Legend :    VFR   Marginal VFR   IFR   Intensive IFR   Very Intensive IFR
Visi :
Ceiling :
>= 8 km
>= 3000ft
5 to 8 km
1000 to 3000 ft
1500m to 5 km
500 to 1000 ft
800 to 1500m
200 to 500 ft
< 800m
< 200 ft
Symbols :   Thunderstorms  Fog  Heavy snow  Heavy precipitations  Wind > 20 kt






- Airport Elevation : 916 ft
- IATA code : IGR


SARI - Cataratas Del Iguazu International

CURRENT METAR :
  • 071045Z 20005KT 0800 FG NSC 16/16 Q1019

EXPIRED METARs :
  • 071035Z 18004KT 3000 NSC 16/16 Q1019
  • 071000Z 20002KT 9000 NSC 16/16 Q1019
  • 070900Z 20002KT CAVOK 16/16 Q1018
  • 070800Z 18006KT CAVOK 17/17 Q1017

TAF TAF SARI
Valid from the 07 at 06:00 until the 08 at 06:00 UTC


070500Z 0706/0806 18005KT 2000 BR NSC TX27/0718Z TN13/0710Z
PROB40 0707/0710 0200 FG
BECMG 0711/0713 9999 FEW025



MET'MAP, your aeronautical weather chart ! - Copyright ORBIFLY December 2007 - Disclaimer

ORBIFLY MET'MAP TEAM :

Programming & Development : Alexandra Zaïnal
Concept & original design : Baudouin d'Aumeries
Assistance for programming : Marc-Olivier Méhu
Technical & hardware support : Manuel Goepfert

Contact : metmap@orbifly.com




SOURCES & CREDITS :

   NOAA       Earth
Advisory